Time;durP1;ratioP1;P1;durP2;ratioP2;P2;SDS_P1;SDS_P2;PMS_P1;PMS_P2;Temp;Humidity;BMP_temperature;BMP_pressure;BME280_temperature;BME280_humidity;BME280_pressure;Samples;Min_cycle;Max_cycle;Signal;HPM_P1;HPM_P2
2023/11/15 00:00:25;;;;;;;2.30;1.43;;;;;;;;;;5114695;28;20850;-58
2023/11/15 00:02:52;;;;;;;1.87;1.40;;;;;;;;;;5114535;28;20933;-59
2023/11/15 00:05:19;;;;;;;4.43;1.30;;;;;;;;;;5114661;28;20480;-58
2023/11/15 00:07:46;;;;;;;4.47;1.30;;;;;;;;;;5114522;28;20446;-59
2023/11/15 00:10:15;;;;;;;4.77;1.23;;;;;;;;;;5114500;28;20870;-59
2023/11/15 00:12:42;;;;;;;5.30;1.40;;;;;;;;;;5114280;28;20515;-59
2023/11/15 00:15:09;;;;;;;3.63;1.10;;;;;;;;;;5114300;28;20456;-58
2023/11/15 00:17:36;;;;;;;2.70;1.17;;;;;;;;;;5114181;28;20839;-59
2023/11/15 00:20:05;;;;;;;2.03;1.10;;;;;;;;;;5114363;28;20503;-59
2023/11/15 00:22:32;;;;;;;2.73;1.20;;;;;;;;;;5114097;28;20484;-59
2023/11/15 00:24:59;;;;;;;2.90;1.10;;;;;;;;;;5114173;28;20534;-59
2023/11/15 00:27:27;;;;;;;3.53;1.20;;;;;;;;;;5114080;28;20480;-59
2023/11/15 00:29:54;;;;;;;3.30;1.23;;;;;;;;;;5113980;28;20885;-59
2023/11/15 00:32:21;;;;;;;4.50;1.33;;;;;;;;;;5114047;28;20473;-59
2023/11/15 00:34:48;;;;;;;1.50;1.13;;;;;;;;;;5113898;28;20471;-59
2023/11/15 00:37:15;;;;;;;1.77;1.10;;;;;;;;;;5114141;28;20445;-59
2023/11/15 00:39:42;;;;;;;3.20;1.50;;;;;;;;;;5113942;28;20876;-58
2023/11/15 00:42:10;;;;;;;2.70;1.27;;;;;;;;;;5114120;28;20445;-59
2023/11/15 00:44:39;;;;;;;4.47;1.30;;;;;;;;;;5113678;28;20462;-59
2023/11/15 00:47:06;;;;;;;4.33;1.63;;;;;;;;;;5113930;28;20442;-59
2023/11/15 00:49:33;;;;;;;5.50;1.50;;;;;;;;;;5113154;28;20438;-59
2023/11/15 00:52:00;;;;;;;2.47;1.03;;;;;;;;;;5113656;28;20481;-59
2023/11/15 00:54:27;;;;;;;4.10;1.00;;;;;;;;;;5113592;28;20933;-58
2023/11/15 00:56:55;;;;;;;2.57;1.37;;;;;;;;;;5113636;28;20441;-59
2023/11/15 00:59:36;;;;;;;1.33;0.90;;;;;;;;;;5113491;28;20450;-59
2023/11/15 01:02:05;;;;;;;3.90;1.80;;;;;;;;;;5113738;28;20472;-59
2023/11/15 01:04:32;;;;;;;3.40;1.10;;;;;;;;;;5113617;28;20839;-59
2023/11/15 01:06:59;;;;;;;4.33;1.30;;;;;;;;;;5113522;28;20449;-58
2023/11/15 01:09:27;;;;;;;4.30;1.20;;;;;;;;;;5113447;28;20491;-59
2023/11/15 01:11:55;;;;;;;2.73;1.20;;;;;;;;;;5113686;28;20469;-58
2023/11/15 01:14:22;;;;;;;4.33;1.90;;;;;;;;;;5113578;28;20442;-59
2023/11/15 01:16:49;;;;;;;4.33;1.37;;;;;;;;;;5113538;28;20532;-59
2023/11/15 01:19:17;;;;;;;1.50;1.23;;;;;;;;;;5113407;28;20521;-58
2023/11/15 01:21:44;;;;;;;2.90;1.20;;;;;;;;;;5113546;28;20513;-59
2023/11/15 01:24:11;;;;;;;2.07;1.30;;;;;;;;;;5113320;28;20441;-59
2023/11/15 01:26:37;;;;;;;2.47;1.40;;;;;;;;;;5113495;28;20533;-59
2023/11/15 01:29:04;;;;;;;3.27;1.30;;;;;;;;;;5113289;28;20653;-59
2023/11/15 01:31:31;;;;;;;3.27;1.70;;;;;;;;;;5113369;28;20502;-58
2023/11/15 01:33:58;;;;;;;2.80;1.40;;;;;;;;;;5113292;28;20438;-59
2023/11/15 01:36:27;;;;;;;1.30;1.17;;;;;;;;;;5113208;28;20857;-59
2023/11/15 01:38:55;;;;;;;1.53;1.10;;;;;;;;;;5113035;28;20438;-59
2023/11/15 01:41:23;;;;;;;2.30;1.10;;;;;;;;;;5113301;28;20450;-59
2023/11/15 01:43:51;;;;;;;3.00;1.50;;;;;;;;;;5113128;28;20835;-59
2023/11/15 01:46:18;;;;;;;3.67;1.20;;;;;;;;;;5113033;28;20445;-59
2023/11/15 01:48:45;;;;;;;2.77;2.00;;;;;;;;;;5113116;28;20453;-59
2023/11/15 01:51:12;;;;;;;2.07;1.10;;;;;;;;;;5112999;28;20879;-59
2023/11/15 01:53:40;;;;;;;2.37;1.10;;;;;;;;;;5113179;28;20474;-59
2023/11/15 01:56:08;;;;;;;1.90;1.60;;;;;;;;;;5112968;28;20963;-59
2023/11/15 01:58:35;;;;;;;2.03;1.37;;;;;;;;;;5113033;28;20532;-59
2023/11/15 02:01:03;;;;;;;3.67;1.50;;;;;;;;;;5114690;28;20540;-59
2023/11/15 02:03:30;;;;;;;1.13;1.03;;;;;;;;;;5116867;28;20445;-59
2023/11/15 02:05:57;;;;;;;5.33;1.40;;;;;;;;;;5116805;28;20484;-59
2023/11/15 02:08:24;;;;;;;3.87;1.10;;;;;;;;;;5116891;28;20445;-58
2023/11/15 02:10:52;;;;;;;2.03;1.87;;;;;;;;;;5116806;28;20450;-59
2023/11/15 02:13:23;;;;;;;1.97;1.50;;;;;;;;;;5116675;28;20568;-59
2023/11/15 02:15:52;;;;;;;1.20;1.10;;;;;;;;;;5116635;28;20854;-59
2023/11/15 02:18:19;;;;;;;5.30;1.33;;;;;;;;;;5116471;28;20437;-59
2023/11/15 02:20:47;;;;;;;1.90;1.70;;;;;;;;;;5116645;28;20446;-58
2023/11/15 02:23:14;;;;;;;1.80;1.53;;;;;;;;;;5116633;28;20528;-60
2023/11/15 02:25:43;;;;;;;2.30;1.30;;;;;;;;;;5116617;28;20441;-58
2023/11/15 02:28:10;;;;;;;2.17;1.70;;;;;;;;;;5116406;28;20521;-59
2023/11/15 02:30:37;;;;;;;3.90;1.20;;;;;;;;;;5116329;28;20437;-58
2023/11/15 02:33:03;;;;;;;3.17;1.60;;;;;;;;;;5116085;28;20477;-59
2023/11/15 02:35:30;;;;;;;2.77;1.83;;;;;;;;;;5116417;28;20448;-59
2023/11/15 02:37:58;;;;;;;2.80;1.87;;;;;;;;;;5116330;28;20445;-59
2023/11/15 02:40:25;;;;;;;2.40;1.90;;;;;;;;;;5116234;28;20525;-58
2023/11/15 02:42:54;;;;;;;3.23;1.83;;;;;;;;;;5116093;28;20445;-59
2023/11/15 02:45:21;;;;;;;2.20;2.00;;;;;;;;;;5116005;28;20536;-59
2023/11/15 02:47:48;;;;;;;3.77;2.63;;;;;;;;;;5115968;28;20476;-58
2023/11/15 02:50:15;;;;;;;4.80;1.90;;;;;;;;;;5116024;28;20445;-59
2023/11/15 02:52:42;;;;;;;5.03;2.17;;;;;;;;;;5116019;28;20484;-58
2023/11/15 02:55:10;;;;;;;4.73;1.90;;;;;;;;;;5115976;28;20872;-59
2023/11/15 02:57:37;;;;;;;2.10;1.90;;;;;;;;;;5115709;28;20438;-58
2023/11/15 03:00:06;;;;;;;5.33;2.57;;;;;;;;;;5115696;28;20520;-59
2023/11/15 03:02:33;;;;;;;2.57;2.20;;;;;;;;;;5115902;28;21011;-59
2023/11/15 03:05:00;;;;;;;4.87;2.07;;;;;;;;;;5115827;28;20442;-59
2023/11/15 03:07:27;;;;;;;8.60;2.27;;;;;;;;;;5115742;28;20442;-59
2023/11/15 03:09:54;;;;;;;2.73;1.87;;;;;;;;;;5115663;28;20796;-58
2023/11/15 03:12:21;;;;;;;3.40;2.60;;;;;;;;;;5114555;28;20441;-59
2023/11/15 03:14:48;;;;;;;2.30;2.10;;;;;;;;;;5115402;28;20804;-58
2023/11/15 03:17:18;;;;;;;2.13;1.90;;;;;;;;;;5115645;28;20812;-58
2023/11/15 03:19:45;;;;;;;4.83;2.33;;;;;;;;;;5115543;28;20438;-59
2023/11/15 03:22:13;;;;;;;2.30;2.13;;;;;;;;;;5115446;28;20529;-58
2023/11/15 03:24:42;;;;;;;5.27;1.93;;;;;;;;;;5115321;28;20449;-58
2023/11/15 03:27:09;;;;;;;6.30;2.33;;;;;;;;;;5115215;28;20517;-59
2023/11/15 03:29:36;;;;;;;3.80;2.20;;;;;;;;;;5115651;28;20540;-59
2023/11/15 03:32:03;;;;;;;2.90;1.97;;;;;;;;;;5115287;28;20530;-59
2023/11/15 03:34:31;;;;;;;2.63;1.80;;;;;;;;;;5115115;28;20568;-59
2023/11/15 03:36:58;;;;;;;3.23;2.13;;;;;;;;;;5115079;28;20445;-59
2023/11/15 03:39:26;;;;;;;2.37;1.77;;;;;;;;;;5114983;28;20457;-59
2023/11/15 03:41:53;;;;;;;4.07;2.33;;;;;;;;;;5115350;28;20446;-59
2023/11/15 03:44:20;;;;;;;5.00;1.87;;;;;;;;;;5114774;28;20469;-59
2023/11/15 03:46:47;;;;;;;4.83;1.90;;;;;;;;;;5114983;28;20446;-58
2023/11/15 03:49:14;;;;;;;3.40;1.73;;;;;;;;;;5114830;28;20502;-58
2023/11/15 03:51:42;;;;;;;6.93;2.03;;;;;;;;;;5114804;28;20442;-59
2023/11/15 03:54:09;;;;;;;2.57;2.30;;;;;;;;;;5114539;28;20483;-59
2023/11/15 03:56:36;;;;;;;2.80;1.30;;;;;;;;;;5114845;28;20448;-59
2023/11/15 03:59:05;;;;;;;4.43;1.80;;;;;;;;;;5114778;28;20450;-59
2023/11/15 04:01:32;;;;;;;4.50;2.00;;;;;;;;;;5114620;28;20452;-59
2023/11/15 04:03:59;;;;;;;5.43;2.47;;;;;;;;;;5114547;28;20456;-59
2023/11/15 04:06:27;;;;;;;3.60;1.93;;;;;;;;;;5114463;28;20882;-58
2023/11/15 04:08:58;;;;;;;2.63;2.00;;;;;;;;;;5114175;28;20503;-59
2023/11/15 04:11:26;;;;;;;2.80;2.00;;;;;;;;;;5114231;28;20929;-59
2023/11/15 04:13:53;;;;;;;5.30;1.60;;;;;;;;;;5114335;28;20485;-59
2023/11/15 04:16:21;;;;;;;4.73;2.13;;;;;;;;;;5114348;28;20473;-60
2023/11/15 04:18:48;;;;;;;2.77;1.77;;;;;;;;;;5114227;28;20454;-59
2023/11/15 04:21:15;;;;;;;2.00;1.80;;;;;;;;;;5114112;28;20787;-58
2023/11/15 04:23:44;;;;;;;3.20;1.97;;;;;;;;;;5114266;28;20446;-59
2023/11/15 04:26:12;;;;;;;8.03;2.17;;;;;;;;;;5114027;28;20445;-59
2023/11/15 04:28:39;;;;;;;6.60;2.57;;;;;;;;;;5114054;28;20533;-59
2023/11/15 04:31:07;;;;;;;4.73;2.13;;;;;;;;;;5114033;28;20600;-59
2023/11/15 04:33:34;;;;;;;3.60;1.77;;;;;;;;;;5113816;28;21002;-59
2023/11/15 04:36:01;;;;;;;2.60;1.63;;;;;;;;;;5114363;28;20444;-59
2023/11/15 04:38:28;;;;;;;3.40;1.70;;;;;;;;;;5113846;28;20802;-59
2023/11/15 04:40:56;;;;;;;2.17;1.70;;;;;;;;;;5113807;28;20941;-59
2023/11/15 04:43:24;;;;;;;2.07;1.90;;;;;;;;;;5113775;28;20502;-59
2023/11/15 04:45:52;;;;;;;3.10;1.57;;;;;;;;;;5113790;28;20813;-59
2023/11/15 04:48:19;;;;;;;4.53;2.00;;;;;;;;;;5113568;28;20437;-59
2023/11/15 04:50:46;;;;;;;3.60;1.43;;;;;;;;;;5113894;28;20533;-59
2023/11/15 04:53:13;;;;;;;2.80;1.20;;;;;;;;;;5113734;28;20475;-59
2023/11/15 04:55:40;;;;;;;4.13;1.30;;;;;;;;;;5113795;28;20448;-59
2023/11/15 04:58:07;;;;;;;2.50;1.30;;;;;;;;;;5113627;28;20816;-59
2023/11/15 05:00:35;;;;;;;2.87;1.50;;;;;;;;;;5113546;28;20989;-58
2023/11/15 05:03:03;;;;;;;2.30;1.40;;;;;;;;;;5113471;28;21026;-59
2023/11/15 05:05:29;;;;;;;1.03;0.93;;;;;;;;;;5113436;28;20937;-59
2023/11/15 05:07:57;;;;;;;3.47;1.30;;;;;;;;;;5113524;28;20447;-59
2023/11/15 05:10:25;;;;;;;2.70;1.10;;;;;;;;;;5113542;28;20445;-59
2023/11/15 05:12:52;;;;;;;2.60;1.07;;;;;;;;;;5113391;28;20449;-59
2023/11/15 05:15:19;;;;;;;1.30;0.90;;;;;;;;;;5113213;28;20965;-59
2023/11/15 05:17:47;;;;;;;2.40;1.30;;;;;;;;;;5113557;28;20503;-59
2023/11/15 05:20:14;;;;;;;3.80;1.27;;;;;;;;;;5113498;28;20442;-60
2023/11/15 05:22:41;;;;;;;6.73;1.20;;;;;;;;;;5113427;28;20498;-58
2023/11/15 05:25:09;;;;;;;2.27;1.03;;;;;;;;;;5113407;28;20820;-58
2023/11/15 05:27:36;;;;;;;2.13;1.33;;;;;;;;;;5113479;28;20536;-58
2023/11/15 05:30:04;;;;;;;2.27;1.20;;;;;;;;;;5113162;28;20447;-58
2023/11/15 05:32:31;;;;;;;3.50;1.37;;;;;;;;;;5113307;28;20441;-58
2023/11/15 05:34:59;;;;;;;1.30;1.00;;;;;;;;;;5113221;28;20579;-58
2023/11/15 05:37:26;;;;;;;1.00;0.90;;;;;;;;;;5117531;28;20528;-58
2023/11/15 05:39:53;;;;;;;2.40;1.00;;;;;;;;;;5117339;28;20441;-58
2023/11/15 05:42:20;;;;;;;2.43;1.30;;;;;;;;;;5117228;28;20441;-58
2023/11/15 05:44:48;;;;;;;2.63;1.37;;;;;;;;;;5117210;28;20840;-58
2023/11/15 05:47:15;;;;;;;2.87;1.23;;;;;;;;;;5117273;28;20446;-58
2023/11/15 05:49:42;;;;;;;2.37;1.27;;;;;;;;;;5117306;28;20445;-58
2023/11/15 05:52:11;;;;;;;2.00;1.00;;;;;;;;;;5117194;28;20870;-59
2023/11/15 05:54:39;;;;;;;1.10;0.90;;;;;;;;;;5116840;28;20477;-57
2023/11/15 05:57:05;;;;;;;1.00;0.90;;;;;;;;;;5116850;28;20441;-57
2023/11/15 05:59:32;;;;;;;1.20;1.00;;;;;;;;;;5117175;28;20872;-60
2023/11/15 06:01:59;;;;;;;1.67;0.90;;;;;;;;;;5116721;28;20441;-60
2023/11/15 06:04:26;;;;;;;1.57;1.27;;;;;;;;;;5116840;28;20441;-57
2023/11/15 06:06:53;;;;;;;1.43;1.07;;;;;;;;;;5117107;28;20447;-58
2023/11/15 06:09:21;;;;;;;1.40;1.30;;;;;;;;;;5116847;28;21058;-57
2023/11/15 06:11:48;;;;;;;1.73;1.23;;;;;;;;;;5116504;28;20442;-57
2023/11/15 06:14:17;;;;;;;1.73;1.20;;;;;;;;;;5116596;28;20481;-60
2023/11/15 06:16:44;;;;;;;1.73;1.20;;;;;;;;;;5116578;28;20514;-57
2023/11/15 06:19:11;;;;;;;1.10;0.93;;;;;;;;;;5116558;28;20843;-57
2023/11/15 06:21:38;;;;;;;1.50;1.40;;;;;;;;;;5116515;27;20461;-60
2023/11/15 06:24:06;;;;;;;1.33;1.23;;;;;;;;;;5116311;28;20491;-58
2023/11/15 06:26:38;;;;;;;1.53;1.43;;;;;;;;;;5116298;28;20445;-60
2023/11/15 06:29:05;;;;;;;1.30;1.00;;;;;;;;;;5116451;28;20532;-58
2023/11/15 06:31:32;;;;;;;1.37;1.20;;;;;;;;;;5116075;28;21011;-57
2023/11/15 06:33:59;;;;;;;1.10;1.00;;;;;;;;;;5116587;28;20523;-60
2023/11/15 06:36:27;;;;;;;1.47;1.37;;;;;;;;;;5116281;28;20446;-60
2023/11/15 06:38:54;;;;;;;1.03;1.00;;;;;;;;;;5116150;28;20509;-60
2023/11/15 06:41:21;;;;;;;1.13;1.00;;;;;;;;;;5116282;28;20452;-60
2023/11/15 06:43:50;;;;;;;2.17;1.27;;;;;;;;;;5116017;28;20480;-58
2023/11/15 06:46:20;;;;;;;1.30;1.20;;;;;;;;;;5115798;28;20790;-60
2023/11/15 06:48:47;;;;;;;2.90;1.43;;;;;;;;;;5115019;28;20491;-60
2023/11/15 06:51:15;;;;;;;2.40;1.67;;;;;;;;;;5115844;28;20446;-60
2023/11/15 06:53:44;;;;;;;1.20;1.10;;;;;;;;;;5115594;28;20979;-60
2023/11/15 06:56:11;;;;;;;1.50;1.40;;;;;;;;;;5116038;28;20452;-60
2023/11/15 06:58:38;;;;;;;1.67;1.57;;;;;;;;;;5115708;28;20460;-60
2023/11/15 07:01:07;;;;;;;2.40;1.57;;;;;;;;;;5115667;28;20532;-60
2023/11/15 07:03:36;;;;;;;1.47;1.17;;;;;;;;;;5115669;28;20442;-60
2023/11/15 07:06:05;;;;;;;1.80;1.70;;;;;;;;;;5116080;28;20437;-60
2023/11/15 07:08:33;;;;;;;2.90;1.33;;;;;;;;;;5115841;28;20476;-60
2023/11/15 07:11:01;;;;;;;1.50;1.40;;;;;;;;;;5115660;28;20442;-60
2023/11/15 07:13:29;;;;;;;1.47;1.23;;;;;;;;;;5115455;28;20446;-60
2023/11/15 07:16:01;;;;;;;2.03;1.40;;;;;;;;;;5115358;28;20446;-60
2023/11/15 07:18:29;;;;;;;1.60;1.50;;;;;;;;;;5115270;28;20446;-60
2023/11/15 07:20:56;;;;;;;1.70;1.60;;;;;;;;;;5115695;28;20442;-57
2023/11/15 07:23:23;;;;;;;7.90;1.83;;;;;;;;;;5115395;28;20442;-59
2023/11/15 07:25:50;;;;;;;2.30;1.60;;;;;;;;;;5115301;28;20441;-60
2023/11/15 07:28:19;;;;;;;1.90;1.80;;;;;;;;;;5115121;28;20533;-60
2023/11/15 07:30:45;;;;;;;1.97;1.87;;;;;;;;;;5114909;28;20473;-60
2023/11/15 07:33:14;;;;;;;5.30;2.17;;;;;;;;;;5115082;28;20446;-60
2023/11/15 07:35:42;;;;;;;1.80;1.70;;;;;;;;;;5115181;28;20513;-59
2023/11/15 07:38:09;;;;;;;2.20;2.00;;;;;;;;;;5115051;28;20540;-59
2023/11/15 07:40:37;;;;;;;2.60;2.07;;;;;;;;;;5114981;28;20469;-59
2023/11/15 07:43:05;;;;;;;2.10;2.00;;;;;;;;;;5114629;28;20446;-59
2023/11/15 07:45:35;;;;;;;4.23;2.40;;;;;;;;;;5114717;28;20449;-59
2023/11/15 07:48:04;;;;;;;2.10;2.00;;;;;;;;;;5114850;28;20440;-60
2023/11/15 07:50:31;;;;;;;2.80;2.33;;;;;;;;;;5114700;28;20484;-60
2023/11/15 07:52:59;;;;;;;2.57;2.37;;;;;;;;;;5114665;28;20445;-60
2023/11/15 07:55:26;;;;;;;2.90;2.70;;;;;;;;;;5114794;28;20568;-60
2023/11/15 07:57:53;;;;;;;2.70;2.40;;;;;;;;;;5114115;28;20533;-60
2023/11/15 08:00:23;;;;;;;2.40;2.20;;;;;;;;;;5114772;28;20446;-60
2023/11/15 08:02:51;;;;;;;2.13;1.93;;;;;;;;;;5114392;28;20446;-61
2023/11/15 08:05:18;;;;;;;4.00;2.27;;;;;;;;;;5114464;28;20473;-60
2023/11/15 08:07:45;;;;;;;2.20;2.10;;;;;;;;;;5114217;28;20980;-60
2023/11/15 08:10:14;;;;;;;2.27;2.10;;;;;;;;;;5114209;28;20437;-61
2023/11/15 08:12:41;;;;;;;2.87;2.23;;;;;;;;;;5114309;28;20793;-62
2023/11/15 08:15:11;;;;;;;2.40;2.20;;;;;;;;;;5114462;28;20477;-60
2023/11/15 08:17:38;;;;;;;3.07;2.77;;;;;;;;;;5114189;28;20449;-59
2023/11/15 08:20:09;;;;;;;2.40;2.30;;;;;;;;;;5114116;28;20449;-58
2023/11/15 08:22:36;;;;;;;2.20;2.00;;;;;;;;;;5114065;28;20446;-65
2023/11/15 08:25:06;;;;;;;2.53;2.37;;;;;;;;;;5113654;28;20437;-64
2023/11/15 08:27:35;;;;;;;2.50;2.30;;;;;;;;;;5114018;28;20570;-65
2023/11/15 08:30:05;;;;;;;3.83;2.60;;;;;;;;;;5113886;28;20442;-60
2023/11/15 08:32:33;;;;;;;6.67;1.80;;;;;;;;;;5113705;28;20442;-59
2023/11/15 08:35:00;;;;;;;2.17;1.97;;;;;;;;;;5113710;28;20477;-59
2023/11/15 08:37:27;;;;;;;3.27;2.60;;;;;;;;;;5113576;28;20882;-58
2023/11/15 08:39:54;;;;;;;2.40;2.30;;;;;;;;;;5114040;28;20446;-59
2023/11/15 08:42:21;;;;;;;2.33;2.13;;;;;;;;;;5113885;28;20481;-59
2023/11/15 08:44:50;;;;;;;2.23;1.87;;;;;;;;;;5113644;28;20474;-60
2023/11/15 08:47:17;;;;;;;2.77;1.60;;;;;;;;;;5113664;28;20838;-59
2023/11/15 08:49:45;;;;;;;1.97;1.87;;;;;;;;;;5113568;28;20835;-59
2023/11/15 08:52:12;;;;;;;2.03;1.93;;;;;;;;;;5113137;28;20446;-60
2023/11/15 08:54:39;;;;;;;1.90;1.80;;;;;;;;;;5113580;28;20474;-59
2023/11/15 08:57:06;;;;;;;2.17;1.97;;;;;;;;;;5113574;28;20445;-60
2023/11/15 08:59:35;;;;;;;2.60;2.07;;;;;;;;;;5113611;28;20532;-59
2023/11/15 09:02:04;;;;;;;2.33;2.23;;;;;;;;;;5113385;28;20866;-59
2023/11/15 09:04:34;;;;;;;2.43;2.33;;;;;;;;;;5113364;28;20877;-60
2023/11/15 09:07:01;;;;;;;2.80;2.60;;;;;;;;;;5113501;28;20438;-60
2023/11/15 09:09:29;;;;;;;2.30;2.10;;;;;;;;;;5112928;28;20521;-60
2023/11/15 09:11:56;;;;;;;2.27;2.17;;;;;;;;;;5112872;28;20441;-60
2023/11/15 09:14:23;;;;;;;2.90;2.67;;;;;;;;;;5113366;28;20474;-60
2023/11/15 09:16:51;;;;;;;2.57;2.37;;;;;;;;;;5113283;28;20536;-60
2023/11/15 09:19:20;;;;;;;2.17;2.07;;;;;;;;;;5113167;28;20960;-61
2023/11/15 09:21:47;;;;;;;2.67;2.23;;;;;;;;;;5093017;28;20496;-59
2023/11/15 09:24:18;;;;;;;2.87;2.27;;;;;;;;;;5092808;28;20533;-60
2023/11/15 09:26:47;;;;;;;2.83;2.63;;;;;;;;;;5092870;28;20438;-60
2023/11/15 09:29:14;;;;;;;3.30;3.00;;;;;;;;;;5092730;28;21000;-61
2023/11/15 09:31:43;;;;;;;2.83;2.63;;;;;;;;;;5092705;28;20533;-59
2023/11/15 09:34:11;;;;;;;2.73;2.53;;;;;;;;;;5092780;28;20858;-60
2023/11/15 09:36:39;;;;;;;2.73;2.53;;;;;;;;;;5092771;28;20439;-60
2023/11/15 09:39:09;;;;;;;2.80;2.50;;;;;;;;;;5092592;28;20470;-61
2023/11/15 09:41:36;;;;;;;2.57;2.37;;;;;;;;;;5092931;28;20445;-60
2023/11/15 09:44:09;;;;;;;2.50;2.30;;;;;;;;;;5092466;28;20467;-60
2023/11/15 09:46:37;;;;;;;2.73;2.53;;;;;;;;;;5092808;28;20462;-60
2023/11/15 09:49:05;;;;;;;3.07;2.87;;;;;;;;;;5092033;28;20526;-57
2023/11/15 09:51:34;;;;;;;2.70;2.50;;;;;;;;;;5092666;28;20460;-60
2023/11/15 09:54:06;;;;;;;3.50;2.57;;;;;;;;;;5109384;28;20803;-60
2023/11/15 09:56:34;;;;;;;3.10;2.60;;;;;;;;;;5113117;28;20481;-61
2023/11/15 09:59:01;;;;;;;3.90;3.13;;;;;;;;;;5112653;28;20437;-60
2023/11/15 10:01:28;;;;;;;3.13;2.83;;;;;;;;;;5112920;28;20940;-58
2023/11/15 10:03:55;;;;;;;3.20;2.90;;;;;;;;;;5112911;28;20448;-58
2023/11/15 10:06:24;;;;;;;3.07;2.77;;;;;;;;;;5112986;28;20481;-59
2023/11/15 10:08:53;;;;;;;3.03;2.83;;;;;;;;;;5112645;28;20446;-59
2023/11/15 10:11:22;;;;;;;2.87;2.67;;;;;;;;;;5112692;28;20477;-59
2023/11/15 10:13:51;;;;;;;3.40;3.10;;;;;;;;;;5112854;28;20449;-59
2023/11/15 10:16:22;;;;;;;3.13;2.90;;;;;;;;;;5112420;28;20949;-59
2023/11/15 10:18:49;;;;;;;2.97;2.77;;;;;;;;;;5112706;28;20449;-61
2023/11/15 10:21:16;;;;;;;3.20;2.67;;;;;;;;;;5113022;28;20940;-59
2023/11/15 10:23:45;;;;;;;2.67;2.47;;;;;;;;;;5116649;27;20453;-59
2023/11/15 10:26:12;;;;;;;3.30;3.00;;;;;;;;;;5116541;28;20448;-58
2023/11/15 10:28:41;;;;;;;2.67;2.50;;;;;;;;;;5116418;28;20437;-62
2023/11/15 10:31:12;;;;;;;3.13;2.87;;;;;;;;;;5116254;28;20442;-62
2023/11/15 10:33:43;;;;;;;2.60;2.40;;;;;;;;;;5116060;28;20445;-61
2023/11/15 10:36:17;;;;;;;3.40;2.20;;;;;;;;;;5115975;28;20488;-60
2023/11/15 10:38:45;;;;;;;2.47;2.30;;;;;;;;;;5116267;28;20446;-61
2023/11/15 10:41:16;;;;;;;2.63;2.50;;;;;;;;;;5116193;28;20450;-60
2023/11/15 10:43:46;;;;;;;2.10;2.00;;;;;;;;;;5115958;28;20552;-60
2023/11/15 10:46:15;;;;;;;2.73;2.53;;;;;;;;;;5116087;28;20446;-60
2023/11/15 10:48:44;;;;;;;2.77;2.50;;;;;;;;;;5115419;28;20433;-56
2023/11/15 10:51:16;;;;;;;2.30;2.17;;;;;;;;;;5115669;28;20445;-60
2023/11/15 10:53:44;;;;;;;2.40;2.30;;;;;;;;;;5115715;28;20438;-58
2023/11/15 10:56:15;;;;;;;2.20;2.00;;;;;;;;;;5115786;28;20477;-59
2023/11/15 10:58:42;;;;;;;2.60;2.40;;;;;;;;;;5115776;28;21000;-58
2023/11/15 11:01:12;;;;;;;2.23;2.13;;;;;;;;;;5115553;28;20473;-59
2023/11/15 11:03:40;;;;;;;2.30;2.20;;;;;;;;;;5115900;28;20845;-59
2023/11/15 11:06:12;;;;;;;2.63;2.43;;;;;;;;;;5115735;28;20540;-59
2023/11/15 11:08:45;;;;;;;2.40;2.20;;;;;;;;;;5115751;28;20446;-62
2023/11/15 11:11:20;;;;;;;2.03;1.93;;;;;;;;;;5115492;28;20843;-59
2023/11/15 11:13:47;;;;;;;2.03;1.93;;;;;;;;;;5115370;28;20898;-59
2023/11/15 11:16:36;;;;;;;3.43;2.43;;;;;;;;;;5115102;28;21000;-59
2023/11/15 11:19:14;;;;;;;2.60;2.40;;;;;;;;;;5115410;28;20449;-60
2023/11/15 11:22:01;;;;;;;2.30;2.20;;;;;;;;;;5115273;28;20452;-58
2023/11/15 11:24:30;;;;;;;2.23;2.13;;;;;;;;;;5115355;28;20480;-59
2023/11/15 11:26:57;;;;;;;2.00;1.90;;;;;;;;;;5115386;28;20446;-59
2023/11/15 11:29:30;;;;;;;2.33;2.07;;;;;;;;;;5115217;28;20433;-60
2023/11/15 11:32:19;;;;;;;2.47;2.27;;;;;;;;;;5115194;28;20442;-59
2023/11/15 11:35:25;;;;;;;1.80;1.70;;;;;;;;;;5108594;28;20450;-61
2023/11/15 11:37:54;;;;;;;2.40;2.03;;;;;;;;;;5114954;28;20479;-58
2023/11/15 11:40:23;;;;;;;1.83;1.60;;;;;;;;;;5114863;28;20438;-57
2023/11/15 11:42:52;;;;;;;1.70;1.40;;;;;;;;;;5114574;28;20446;-59
2023/11/15 11:45:19;;;;;;;4.07;1.83;;;;;;;;;;5114922;28;20448;-58
2023/11/15 11:47:48;;;;;;;1.70;1.57;;;;;;;;;;5114737;28;20941;-58
2023/11/15 11:50:18;;;;;;;2.07;1.60;;;;;;;;;;5114759;28;20488;-59
2023/11/15 11:52:45;;;;;;;1.70;1.60;;;;;;;;;;5114737;28;20612;-59
2023/11/15 11:55:14;;;;;;;1.63;1.53;;;;;;;;;;5114595;28;20473;-60
2023/11/15 11:57:41;;;;;;;1.77;1.67;;;;;;;;;;5114459;28;20441;-58
2023/11/15 12:00:11;;;;;;;2.00;1.90;;;;;;;;;;5114740;27;20856;-58
2023/11/15 12:02:38;;;;;;;1.67;1.57;;;;;;;;;;5114359;28;20537;-58
2023/11/15 12:05:06;;;;;;;2.17;1.83;;;;;;;;;;5114447;28;20532;-60
2023/11/15 12:07:33;;;;;;;1.63;1.53;;;;;;;;;;5114327;28;20585;-58
2023/11/15 12:10:03;;;;;;;2.40;2.20;;;;;;;;;;5114276;28;20828;-59
2023/11/15 12:12:32;;;;;;;2.00;1.80;;;;;;;;;;5114424;28;20536;-58
2023/11/15 12:14:59;;;;;;;2.07;1.53;;;;;;;;;;5114085;28;20993;-59
2023/11/15 12:17:36;;;;;;;1.80;1.70;;;;;;;;;;5114124;28;20442;-61
2023/11/15 12:20:03;;;;;;;1.90;1.80;;;;;;;;;;5114225;28;20450;-59
2023/11/15 12:22:31;;;;;;;1.73;1.63;;;;;;;;;;5113979;28;20528;-59
2023/11/15 12:24:58;;;;;;;4.17;1.80;;;;;;;;;;5114192;28;20541;-60
2023/11/15 12:27:26;;;;;;;1.53;1.43;;;;;;;;;;5114025;28;20536;-60
2023/11/15 12:29:54;;;;;;;1.60;1.50;;;;;;;;;;5113932;28;20536;-60
2023/11/15 12:32:22;;;;;;;1.80;1.63;;;;;;;;;;5113899;28;20491;-60
2023/11/15 12:34:49;;;;;;;2.57;1.87;;;;;;;;;;5113682;28;20506;-59
2023/11/15 12:37:16;;;;;;;1.57;1.47;;;;;;;;;;5113550;28;20491;-60
2023/11/15 12:39:43;;;;;;;1.83;1.73;;;;;;;;;;5113805;28;20530;-61
2023/11/15 12:42:10;;;;;;;2.23;1.53;;;;;;;;;;5113688;28;20442;-59
2023/11/15 12:44:44;;;;;;;2.50;2.40;;;;;;;;;;5113632;28;20497;-60
2023/11/15 12:47:13;;;;;;;1.73;1.63;;;;;;;;;;5113562;28;20897;-60
2023/11/15 12:49:40;;;;;;;1.93;1.77;;;;;;;;;;5113451;28;20503;-58
2023/11/15 12:52:07;;;;;;;1.70;1.60;;;;;;;;;;5113451;28;20986;-59
2023/11/15 12:54:35;;;;;;;1.63;1.53;;;;;;;;;;5113627;28;20782;-63
2023/11/15 12:57:03;;;;;;;1.70;1.60;;;;;;;;;;5113468;28;20481;-60
2023/11/15 12:59:33;;;;;;;2.30;1.90;;;;;;;;;;5113422;28;20449;-63
2023/11/15 13:02:00;;;;;;;2.23;1.63;;;;;;;;;;5113362;28;20500;-61
2023/11/15 13:04:45;;;;;;;3.53;2.10;;;;;;;;;;5113591;28;20536;-60
2023/11/15 13:07:12;;;;;;;3.03;2.83;;;;;;;;;;5113260;28;20495;-60
2023/11/15 13:09:39;;;;;;;1.90;1.80;;;;;;;;;;5113198;28;20979;-60
2023/11/15 13:12:06;;;;;;;1.60;1.50;;;;;;;;;;5113576;28;20529;-62
2023/11/15 13:14:33;;;;;;;1.80;1.70;;;;;;;;;;5113121;28;20500;-60
2023/11/15 13:17:00;;;;;;;1.90;1.80;;;;;;;;;;5113188;28;20858;-61
2023/11/15 13:19:28;;;;;;;2.73;2.03;;;;;;;;;;5113245;28;20529;-60
2023/11/15 13:21:57;;;;;;;3.20;2.90;;;;;;;;;;5113274;28;20893;-60
2023/11/15 13:24:23;;;;;;;2.43;2.13;;;;;;;;;;5113117;28;20484;-61
2023/11/15 13:26:50;;;;;;;5.93;2.53;;;;;;;;;;5113056;28;20445;-61
2023/11/15 13:29:19;;;;;;;2.17;2.07;;;;;;;;;;5112867;28;20446;-64
2023/11/15 13:31:47;;;;;;;2.30;2.10;;;;;;;;;;5113236;28;20442;-63
2023/11/15 13:34:17;;;;;;;2.60;2.40;;;;;;;;;;5113223;28;20464;-63
2023/11/15 13:36:46;;;;;;;2.53;2.33;;;;;;;;;;5113141;28;20513;-60
2023/11/15 13:39:14;;;;;;;2.87;2.63;;;;;;;;;;5112901;28;20889;-60
2023/11/15 13:41:41;;;;;;;2.07;1.83;;;;;;;;;;5113477;28;20442;-60
2023/11/15 13:44:08;;;;;;;4.10;2.97;;;;;;;;;;5112993;28;20481;-61
2023/11/15 13:46:36;;;;;;;2.83;2.40;;;;;;;;;;5113113;28;20491;-61
2023/11/15 13:49:05;;;;;;;1.63;1.50;;;;;;;;;;5112988;28;20992;-60
2023/11/15 13:51:32;;;;;;;8.00;2.00;;;;;;;;;;5112948;28;20478;-60
2023/11/15 13:54:00;;;;;;;2.23;2.03;;;;;;;;;;5112880;28;20504;-60
2023/11/15 13:56:28;;;;;;;1.77;1.67;;;;;;;;;;5113409;28;20477;-60
2023/11/15 13:58:55;;;;;;;2.40;2.17;;;;;;;;;;5116751;28;20956;-60
2023/11/15 14:01:22;;;;;;;2.70;2.50;;;;;;;;;;5116906;28;20487;-61
2023/11/15 14:03:49;;;;;;;1.90;1.80;;;;;;;;;;5116921;28;20473;-62
2023/11/15 14:06:16;;;;;;;6.73;1.90;;;;;;;;;;5116853;28;20532;-61
2023/11/15 14:08:43;;;;;;;2.20;1.80;;;;;;;;;;5116586;28;20540;-60
2023/11/15 14:11:12;;;;;;;2.00;1.73;;;;;;;;;;5116776;28;20437;-60
2023/11/15 14:13:41;;;;;;;5.03;1.80;;;;;;;;;;5116827;28;20492;-62
2023/11/15 14:16:09;;;;;;;2.37;2.17;;;;;;;;;;5116165;28;20480;-61
2023/11/15 14:18:36;;;;;;;1.87;1.70;;;;;;;;;;5116654;28;20485;-59
2023/11/15 14:21:04;;;;;;;1.77;1.40;;;;;;;;;;5116058;28;20472;-61
2023/11/15 14:23:31;;;;;;;3.00;2.80;;;;;;;;;;5115853;28;20905;-60
2023/11/15 14:25:58;;;;;;;2.20;2.10;;;;;;;;;;5114491;28;20536;-62
2023/11/15 14:28:27;;;;;;;2.10;2.00;;;;;;;;;;5114046;28;20437;-60
2023/11/15 14:30:54;;;;;;;3.33;3.03;;;;;;;;;;5114222;28;20442;-61
2023/11/15 14:33:20;;;;;;;6.00;3.90;;;;;;;;;;5114530;28;20445;-61
2023/11/15 14:35:47;;;;;;;12.97;6.43;;;;;;;;;;5114311;28;20524;-60
2023/11/15 14:38:15;;;;;;;3.20;2.50;;;;;;;;;;5114566;28;20477;-61
2023/11/15 14:40:44;;;;;;;3.83;3.53;;;;;;;;;;5115566;28;20473;-62
2023/11/15 14:43:14;;;;;;;3.00;2.80;;;;;;;;;;5116175;28;20530;-61
2023/11/15 14:45:44;;;;;;;2.97;2.30;;;;;;;;;;5116247;28;21086;-61
2023/11/15 14:48:11;;;;;;;2.17;1.73;;;;;;;;;;5115723;28;20445;-63